sensor_id;sensor_type;location;lat;lon;timestamp;P1;durP1;ratioP1;P2;durP2;ratioP2
64649;SDS011;51061;45.258;38.112;2022-10-16T00:01:32;7.13;;;2.60;;
64649;SDS011;51061;45.258;38.112;2022-10-16T00:03:59;14.32;;;3.90;;
64649;SDS011;51061;45.258;38.112;2022-10-16T00:06:26;12.97;;;3.73;;
64649;SDS011;51061;45.258;38.112;2022-10-16T00:08:57;10.67;;;3.33;;
64649;SDS011;51061;45.258;38.112;2022-10-16T00:13:51;12.90;;;5.10;;
64649;SDS011;51061;45.258;38.112;2022-10-16T00:16:21;9.23;;;3.37;;
64649;SDS011;51061;45.258;38.112;2022-10-16T00:18:47;10.73;;;3.10;;
64649;SDS011;51061;45.258;38.112;2022-10-16T00:21:14;7.78;;;3.20;;
64649;SDS011;51061;45.258;38.112;2022-10-16T00:24:03;9.87;;;3.20;;
64649;SDS011;51061;45.258;38.112;2022-10-16T00:26:32;22.90;;;7.07;;
64649;SDS011;51061;45.258;38.112;2022-10-16T00:28:59;8.50;;;3.33;;
64649;SDS011;51061;45.258;38.112;2022-10-16T00:31:25;8.45;;;3.00;;
64649;SDS011;51061;45.258;38.112;2022-10-16T00:33:52;8.00;;;3.10;;
64649;SDS011;51061;45.258;38.112;2022-10-16T00:38:46;9.88;;;3.45;;
64649;SDS011;51061;45.258;38.112;2022-10-16T00:41:14;14.87;;;4.57;;
64649;SDS011;51061;45.258;38.112;2022-10-16T00:43:43;12.33;;;3.47;;
64649;SDS011;51061;45.258;38.112;2022-10-16T00:48:48;9.33;;;2.90;;
64649;SDS011;51061;45.258;38.112;2022-10-16T00:51:21;11.80;;;3.50;;
64649;SDS011;51061;45.258;38.112;2022-10-16T00:53:51;12.10;;;3.37;;
64649;SDS011;51061;45.258;38.112;2022-10-16T00:56:17;16.43;;;3.63;;
64649;SDS011;51061;45.258;38.112;2022-10-16T00:58:44;10.07;;;3.40;;
64649;SDS011;51061;45.258;38.112;2022-10-16T01:01:10;8.27;;;3.33;;
64649;SDS011;51061;45.258;38.112;2022-10-16T01:03:36;7.40;;;2.78;;
64649;SDS011;51061;45.258;38.112;2022-10-16T01:14:10;9.55;;;3.58;;
64649;SDS011;51061;45.258;38.112;2022-10-16T01:16:47;17.87;;;4.17;;
64649;SDS011;51061;45.258;38.112;2022-10-16T01:22:23;10.13;;;3.40;;
64649;SDS011;51061;45.258;38.112;2022-10-16T01:24:53;7.90;;;2.80;;
64649;SDS011;51061;45.258;38.112;2022-10-16T01:30:03;12.87;;;3.83;;
64649;SDS011;51061;45.258;38.112;2022-10-16T01:32:42;10.20;;;3.37;;
64649;SDS011;51061;45.258;38.112;2022-10-16T01:35:41;12.67;;;3.77;;
64649;SDS011;51061;45.258;38.112;2022-10-16T01:38:19;9.20;;;3.30;;
64649;SDS011;51061;45.258;38.112;2022-10-16T01:41:39;8.60;;;3.50;;
64649;SDS011;51061;45.258;38.112;2022-10-16T01:44:06;13.57;;;3.53;;
64649;SDS011;51061;45.258;38.112;2022-10-16T01:46:38;11.47;;;3.30;;
64649;SDS011;51061;45.258;38.112;2022-10-16T01:49:06;10.90;;;4.03;;
64649;SDS011;51061;45.258;38.112;2022-10-16T01:51:34;11.53;;;3.57;;
64649;SDS011;51061;45.258;38.112;2022-10-16T01:54:02;11.43;;;3.47;;
64649;SDS011;51061;45.258;38.112;2022-10-16T01:56:32;11.83;;;3.67;;
64649;SDS011;51061;45.258;38.112;2022-10-16T01:59:01;10.37;;;3.40;;
64649;SDS011;51061;45.258;38.112;2022-10-16T02:01:47;14.30;;;3.30;;
64649;SDS011;51061;45.258;38.112;2022-10-16T02:04:29;13.90;;;3.60;;
64649;SDS011;51061;45.258;38.112;2022-10-16T02:06:58;10.97;;;3.40;;
64649;SDS011;51061;45.258;38.112;2022-10-16T02:09:25;9.67;;;3.23;;
64649;SDS011;51061;45.258;38.112;2022-10-16T02:14:22;9.07;;;3.50;;
64649;SDS011;51061;45.258;38.112;2022-10-16T02:16:50;8.47;;;3.07;;
64649;SDS011;51061;45.258;38.112;2022-10-16T02:19:16;9.20;;;3.47;;
64649;SDS011;51061;45.258;38.112;2022-10-16T02:26:57;9.88;;;3.55;;
64649;SDS011;51061;45.258;38.112;2022-10-16T02:29:30;6.20;;;2.90;;
64649;SDS011;51061;45.258;38.112;2022-10-16T02:32:00;10.77;;;3.57;;
64649;SDS011;51061;45.258;38.112;2022-10-16T02:34:28;10.23;;;3.40;;
64649;SDS011;51061;45.258;38.112;2022-10-16T02:36:56;10.53;;;3.57;;
64649;SDS011;51061;45.258;38.112;2022-10-16T02:39:26;11.07;;;3.33;;
64649;SDS011;51061;45.258;38.112;2022-10-16T02:41:54;11.43;;;3.90;;
64649;SDS011;51061;45.258;38.112;2022-10-16T02:44:20;7.72;;;3.30;;
64649;SDS011;51061;45.258;38.112;2022-10-16T02:46:46;9.32;;;3.58;;
64649;SDS011;51061;45.258;38.112;2022-10-16T02:49:12;9.35;;;3.10;;
64649;SDS011;51061;45.258;38.112;2022-10-16T02:51:38;8.90;;;3.80;;
64649;SDS011;51061;45.258;38.112;2022-10-16T02:54:04;11.27;;;3.45;;
64649;SDS011;51061;45.258;38.112;2022-10-16T02:56:30;12.63;;;3.75;;
64649;SDS011;51061;45.258;38.112;2022-10-16T02:58:56;8.70;;;3.67;;
64649;SDS011;51061;45.258;38.112;2022-10-16T03:01:23;10.40;;;3.58;;
64649;SDS011;51061;45.258;38.112;2022-10-16T03:06:15;9.07;;;3.03;;
64649;SDS011;51061;45.258;38.112;2022-10-16T03:08:41;14.68;;;3.53;;
64649;SDS011;51061;45.258;38.112;2022-10-16T03:11:07;10.95;;;3.08;;
64649;SDS011;51061;45.258;38.112;2022-10-16T03:13:33;11.23;;;3.20;;
64649;SDS011;51061;45.258;38.112;2022-10-16T03:15:59;11.20;;;3.78;;
64649;SDS011;51061;45.258;38.112;2022-10-16T03:18:25;12.23;;;3.38;;
64649;SDS011;51061;45.258;38.112;2022-10-16T03:20:51;9.43;;;3.40;;
64649;SDS011;51061;45.258;38.112;2022-10-16T03:23:17;10.07;;;3.45;;
64649;SDS011;51061;45.258;38.112;2022-10-16T03:25:43;11.75;;;3.55;;
64649;SDS011;51061;45.258;38.112;2022-10-16T03:28:09;10.32;;;4.05;;
64649;SDS011;51061;45.258;38.112;2022-10-16T03:30:35;13.48;;;3.38;;
64649;SDS011;51061;45.258;38.112;2022-10-16T03:33:01;11.05;;;3.88;;
64649;SDS011;51061;45.258;38.112;2022-10-16T03:35:27;12.15;;;3.20;;
64649;SDS011;51061;45.258;38.112;2022-10-16T03:37:53;7.80;;;3.33;;
64649;SDS011;51061;45.258;38.112;2022-10-16T03:40:19;12.02;;;3.47;;
64649;SDS011;51061;45.258;38.112;2022-10-16T03:42:46;10.80;;;3.47;;
64649;SDS011;51061;45.258;38.112;2022-10-16T03:45:11;8.23;;;3.47;;
64649;SDS011;51061;45.258;38.112;2022-10-16T03:47:37;8.27;;;3.15;;
64649;SDS011;51061;45.258;38.112;2022-10-16T03:50:04;12.82;;;3.42;;
64649;SDS011;51061;45.258;38.112;2022-10-16T03:52:30;8.60;;;3.20;;
64649;SDS011;51061;45.258;38.112;2022-10-16T03:54:57;11.40;;;3.23;;
64649;SDS011;51061;45.258;38.112;2022-10-16T03:57:23;9.77;;;2.90;;
64649;SDS011;51061;45.258;38.112;2022-10-16T03:59:49;13.32;;;3.88;;
64649;SDS011;51061;45.258;38.112;2022-10-16T04:02:16;14.95;;;3.78;;
64649;SDS011;51061;45.258;38.112;2022-10-16T04:04:42;11.68;;;3.53;;
64649;SDS011;51061;45.258;38.112;2022-10-16T04:07:08;17.85;;;4.50;;
64649;SDS011;51061;45.258;38.112;2022-10-16T04:09:34;12.15;;;3.63;;
64649;SDS011;51061;45.258;38.112;2022-10-16T04:12:00;10.68;;;3.55;;
64649;SDS011;51061;45.258;38.112;2022-10-16T04:14:26;9.38;;;3.28;;
64649;SDS011;51061;45.258;38.112;2022-10-16T04:16:52;10.98;;;3.97;;
64649;SDS011;51061;45.258;38.112;2022-10-16T04:19:18;9.05;;;3.03;;
64649;SDS011;51061;45.258;38.112;2022-10-16T04:21:44;10.25;;;3.65;;
64649;SDS011;51061;45.258;38.112;2022-10-16T04:24:10;11.68;;;3.88;;
64649;SDS011;51061;45.258;38.112;2022-10-16T04:29:02;11.03;;;3.43;;
64649;SDS011;51061;45.258;38.112;2022-10-16T04:31:28;10.40;;;3.42;;
64649;SDS011;51061;45.258;38.112;2022-10-16T04:33:55;10.15;;;3.40;;
64649;SDS011;51061;45.258;38.112;2022-10-16T04:36:21;9.95;;;3.40;;
64649;SDS011;51061;45.258;38.112;2022-10-16T04:38:47;10.98;;;3.65;;
64649;SDS011;51061;45.258;38.112;2022-10-16T04:41:13;13.57;;;3.17;;
64649;SDS011;51061;45.258;38.112;2022-10-16T04:43:39;11.32;;;3.55;;
64649;SDS011;51061;45.258;38.112;2022-10-16T04:46:05;10.05;;;3.30;;
64649;SDS011;51061;45.258;38.112;2022-10-16T04:48:31;10.32;;;3.67;;
64649;SDS011;51061;45.258;38.112;2022-10-16T04:53:24;12.87;;;3.90;;
64649;SDS011;51061;45.258;38.112;2022-10-16T04:55:50;10.50;;;3.55;;
64649;SDS011;51061;45.258;38.112;2022-10-16T04:58:16;9.80;;;3.83;;
64649;SDS011;51061;45.258;38.112;2022-10-16T05:00:43;10.88;;;3.67;;
64649;SDS011;51061;45.258;38.112;2022-10-16T05:03:09;13.37;;;4.03;;
64649;SDS011;51061;45.258;38.112;2022-10-16T05:05:35;12.25;;;3.83;;
64649;SDS011;51061;45.258;38.112;2022-10-16T05:08:02;10.07;;;3.60;;
64649;SDS011;51061;45.258;38.112;2022-10-16T05:10:28;13.85;;;3.80;;
64649;SDS011;51061;45.258;38.112;2022-10-16T05:12:54;11.18;;;4.30;;
64649;SDS011;51061;45.258;38.112;2022-10-16T05:15:20;28.60;;;7.65;;
64649;SDS011;51061;45.258;38.112;2022-10-16T05:17:46;10.80;;;4.22;;
64649;SDS011;51061;45.258;38.112;2022-10-16T05:20:12;11.82;;;3.50;;
64649;SDS011;51061;45.258;38.112;2022-10-16T05:22:38;20.98;;;4.57;;
64649;SDS011;51061;45.258;38.112;2022-10-16T05:25:04;12.73;;;3.22;;
64649;SDS011;51061;45.258;38.112;2022-10-16T05:27:30;7.35;;;3.22;;
64649;SDS011;51061;45.258;38.112;2022-10-16T05:29:56;12.57;;;3.85;;
64649;SDS011;51061;45.258;38.112;2022-10-16T05:32:22;9.43;;;3.47;;
64649;SDS011;51061;45.258;38.112;2022-10-16T05:34:48;10.77;;;3.40;;
64649;SDS011;51061;45.258;38.112;2022-10-16T05:37:16;10.63;;;3.07;;
64649;SDS011;51061;45.258;38.112;2022-10-16T05:39:42;13.63;;;3.20;;
64649;SDS011;51061;45.258;38.112;2022-10-16T05:42:08;12.73;;;3.95;;
64649;SDS011;51061;45.258;38.112;2022-10-16T05:44:34;10.77;;;3.53;;
64649;SDS011;51061;45.258;38.112;2022-10-16T05:47:00;14.95;;;4.80;;
64649;SDS011;51061;45.258;38.112;2022-10-16T05:49:26;13.98;;;4.45;;
64649;SDS011;51061;45.258;38.112;2022-10-16T05:51:52;12.18;;;3.85;;
64649;SDS011;51061;45.258;38.112;2022-10-16T05:54:18;12.60;;;3.67;;
64649;SDS011;51061;45.258;38.112;2022-10-16T05:56:44;10.65;;;3.45;;
64649;SDS011;51061;45.258;38.112;2022-10-16T05:59:10;9.02;;;3.55;;
64649;SDS011;51061;45.258;38.112;2022-10-16T06:01:36;10.52;;;3.65;;
64649;SDS011;51061;45.258;38.112;2022-10-16T06:04:03;10.85;;;3.30;;
64649;SDS011;51061;45.258;38.112;2022-10-16T06:08:56;13.60;;;4.10;;
64649;SDS011;51061;45.258;38.112;2022-10-16T06:11:23;14.77;;;4.17;;
64649;SDS011;51061;45.258;38.112;2022-10-16T06:13:55;13.50;;;4.53;;
64649;SDS011;51061;45.258;38.112;2022-10-16T06:16:24;15.20;;;4.53;;
64649;SDS011;51061;45.258;38.112;2022-10-16T06:18:54;14.13;;;4.70;;
64649;SDS011;51061;45.258;38.112;2022-10-16T06:21:25;18.60;;;4.57;;
64649;SDS011;51061;45.258;38.112;2022-10-16T06:23:53;18.30;;;5.30;;
64649;SDS011;51061;45.258;38.112;2022-10-16T06:26:20;9.60;;;3.47;;
64649;SDS011;51061;45.258;38.112;2022-10-16T06:28:49;11.93;;;3.50;;
64649;SDS011;51061;45.258;38.112;2022-10-16T06:33:42;9.93;;;3.60;;
64649;SDS011;51061;45.258;38.112;2022-10-16T06:36:12;9.63;;;3.60;;
64649;SDS011;51061;45.258;38.112;2022-10-16T06:38:40;13.05;;;3.40;;
64649;SDS011;51061;45.258;38.112;2022-10-16T06:41:07;11.73;;;2.83;;
64649;SDS011;51061;45.258;38.112;2022-10-16T06:43:41;12.30;;;3.72;;
64649;SDS011;51061;45.258;38.112;2022-10-16T06:46:10;6.10;;;2.55;;
64649;SDS011;51061;45.258;38.112;2022-10-16T06:48:37;10.75;;;3.47;;
64649;SDS011;51061;45.258;38.112;2022-10-16T06:53:52;12.15;;;3.08;;
64649;SDS011;51061;45.258;38.112;2022-10-16T06:56:20;6.82;;;2.40;;
64649;SDS011;51061;45.258;38.112;2022-10-16T06:58:48;12.60;;;2.88;;
64649;SDS011;51061;45.258;38.112;2022-10-16T07:01:15;6.65;;;2.60;;
64649;SDS011;51061;45.258;38.112;2022-10-16T07:03:44;8.02;;;2.80;;
64649;SDS011;51061;45.258;38.112;2022-10-16T07:06:12;8.18;;;3.72;;
64649;SDS011;51061;45.258;38.112;2022-10-16T07:08:40;8.10;;;2.88;;
64649;SDS011;51061;45.258;38.112;2022-10-16T07:11:12;11.80;;;3.40;;
64649;SDS011;51061;45.258;38.112;2022-10-16T07:13:41;11.75;;;2.88;;
64649;SDS011;51061;45.258;38.112;2022-10-16T07:16:11;19.00;;;2.97;;
64649;SDS011;51061;45.258;38.112;2022-10-16T07:18:40;14.80;;;3.33;;
64649;SDS011;51061;45.258;38.112;2022-10-16T07:21:18;11.18;;;3.03;;
64649;SDS011;51061;45.258;38.112;2022-10-16T07:23:51;6.38;;;2.72;;
64649;SDS011;51061;45.258;38.112;2022-10-16T07:26:18;8.20;;;3.22;;
64649;SDS011;51061;45.258;38.112;2022-10-16T07:28:44;8.70;;;3.00;;
64649;SDS011;51061;45.258;38.112;2022-10-16T07:31:11;11.82;;;3.05;;
64649;SDS011;51061;45.258;38.112;2022-10-16T07:33:39;8.43;;;3.15;;
64649;SDS011;51061;45.258;38.112;2022-10-16T07:36:08;11.93;;;3.17;;
64649;SDS011;51061;45.258;38.112;2022-10-16T07:38:34;11.52;;;3.13;;
64649;SDS011;51061;45.258;38.112;2022-10-16T07:43:28;10.23;;;3.10;;
64649;SDS011;51061;45.258;38.112;2022-10-16T07:45:55;11.25;;;2.95;;
64649;SDS011;51061;45.258;38.112;2022-10-16T07:48:22;17.85;;;3.28;;
64649;SDS011;51061;45.258;38.112;2022-10-16T07:50:49;18.48;;;5.63;;
64649;SDS011;51061;45.258;38.112;2022-10-16T07:53:15;12.25;;;3.42;;
64649;SDS011;51061;45.258;38.112;2022-10-16T07:55:41;11.82;;;3.20;;
64649;SDS011;51061;45.258;38.112;2022-10-16T07:58:08;9.60;;;3.33;;
64649;SDS011;51061;45.258;38.112;2022-10-16T08:00:35;11.95;;;3.72;;
64649;SDS011;51061;45.258;38.112;2022-10-16T08:03:02;10.85;;;3.90;;
64649;SDS011;51061;45.258;38.112;2022-10-16T08:05:29;6.93;;;2.97;;
64649;SDS011;51061;45.258;38.112;2022-10-16T08:07:58;6.20;;;2.90;;
64649;SDS011;51061;45.258;38.112;2022-10-16T08:10:24;8.50;;;3.42;;
64649;SDS011;51061;45.258;38.112;2022-10-16T08:12:55;7.32;;;2.40;;
64649;SDS011;51061;45.258;38.112;2022-10-16T08:15:21;6.03;;;2.83;;
64649;SDS011;51061;45.258;38.112;2022-10-16T08:17:54;9.63;;;3.03;;
64649;SDS011;51061;45.258;38.112;2022-10-16T08:22:50;11.52;;;2.97;;
64649;SDS011;51061;45.258;38.112;2022-10-16T08:25:17;9.05;;;3.38;;
64649;SDS011;51061;45.258;38.112;2022-10-16T08:27:43;12.30;;;3.78;;
64649;SDS011;51061;45.258;38.112;2022-10-16T08:30:10;8.40;;;3.10;;
64649;SDS011;51061;45.258;38.112;2022-10-16T08:32:36;8.20;;;2.70;;
64649;SDS011;51061;45.258;38.112;2022-10-16T08:35:02;7.63;;;2.90;;
64649;SDS011;51061;45.258;38.112;2022-10-16T08:37:31;11.13;;;3.15;;
64649;SDS011;51061;45.258;38.112;2022-10-16T08:39:58;13.65;;;3.63;;
64649;SDS011;51061;45.258;38.112;2022-10-16T08:42:29;6.15;;;2.88;;
64649;SDS011;51061;45.258;38.112;2022-10-16T08:48:05;12.43;;;3.30;;
64649;SDS011;51061;45.258;38.112;2022-10-16T08:50:51;10.10;;;3.30;;
64649;SDS011;51061;45.258;38.112;2022-10-16T08:53:29;7.97;;;3.75;;
64649;SDS011;51061;45.258;38.112;2022-10-16T08:56:05;12.95;;;3.50;;
64649;SDS011;51061;45.258;38.112;2022-10-16T08:58:32;13.10;;;3.83;;
64649;SDS011;51061;45.258;38.112;2022-10-16T09:05:52;15.35;;;4.25;;
64649;SDS011;51061;45.258;38.112;2022-10-16T09:11:18;12.15;;;3.88;;
64649;SDS011;51061;45.258;38.112;2022-10-16T09:14:00;17.38;;;5.93;;
64649;SDS011;51061;45.258;38.112;2022-10-16T09:16:51;12.70;;;4.90;;
64649;SDS011;51061;45.258;38.112;2022-10-16T09:21:58;11.90;;;4.00;;
64649;SDS011;51061;45.258;38.112;2022-10-16T09:27:00;13.25;;;4.07;;
64649;SDS011;51061;45.258;38.112;2022-10-16T09:31:52;8.07;;;3.38;;
64649;SDS011;51061;45.258;38.112;2022-10-16T09:34:24;9.63;;;3.90;;
64649;SDS011;51061;45.258;38.112;2022-10-16T09:36:54;8.27;;;3.45;;
64649;SDS011;51061;45.258;38.112;2022-10-16T09:39:22;10.63;;;3.38;;
64649;SDS011;51061;45.258;38.112;2022-10-16T09:41:48;10.38;;;4.03;;
64649;SDS011;51061;45.258;38.112;2022-10-16T09:44:28;10.00;;;4.03;;
64649;SDS011;51061;45.258;38.112;2022-10-16T09:47:03;7.05;;;3.30;;
64649;SDS011;51061;45.258;38.112;2022-10-16T09:49:53;19.00;;;4.63;;
64649;SDS011;51061;45.258;38.112;2022-10-16T09:52:31;17.08;;;5.10;;
64649;SDS011;51061;45.258;38.112;2022-10-16T09:55:02;12.80;;;4.68;;
64649;SDS011;51061;45.258;38.112;2022-10-16T09:57:49;9.75;;;3.67;;
64649;SDS011;51061;45.258;38.112;2022-10-16T10:00:16;20.65;;;4.90;;
64649;SDS011;51061;45.258;38.112;2022-10-16T10:02:43;11.32;;;4.30;;
64649;SDS011;51061;45.258;38.112;2022-10-16T10:05:23;13.77;;;4.45;;
64649;SDS011;51061;45.258;38.112;2022-10-16T10:07:55;11.38;;;4.45;;
64649;SDS011;51061;45.258;38.112;2022-10-16T10:10:29;10.38;;;3.80;;
64649;SDS011;51061;45.258;38.112;2022-10-16T10:12:57;10.38;;;3.67;;
64649;SDS011;51061;45.258;38.112;2022-10-16T10:15:23;11.45;;;4.25;;
64649;SDS011;51061;45.258;38.112;2022-10-16T10:17:53;21.52;;;5.68;;
64649;SDS011;51061;45.258;38.112;2022-10-16T10:23:00;17.17;;;4.45;;
64649;SDS011;51061;45.258;38.112;2022-10-16T10:25:43;9.40;;;3.85;;
64649;SDS011;51061;45.258;38.112;2022-10-16T10:28:54;16.50;;;4.50;;
64649;SDS011;51061;45.258;38.112;2022-10-16T10:34:11;8.82;;;3.90;;
64649;SDS011;51061;45.258;38.112;2022-10-16T10:36:56;12.63;;;4.18;;
64649;SDS011;51061;45.258;38.112;2022-10-16T10:39:35;14.38;;;4.20;;
64649;SDS011;51061;45.258;38.112;2022-10-16T10:55:23;8.75;;;4.35;;
64649;SDS011;51061;45.258;38.112;2022-10-16T11:08:59;10.45;;;4.22;;
64649;SDS011;51061;45.258;38.112;2022-10-16T11:11:46;15.25;;;4.88;;
64649;SDS011;51061;45.258;38.112;2022-10-16T11:14:21;18.08;;;5.70;;
64649;SDS011;51061;45.258;38.112;2022-10-16T11:16:58;15.95;;;5.65;;
64649;SDS011;51061;45.258;38.112;2022-10-16T11:22:21;13.32;;;4.60;;
64649;SDS011;51061;45.258;38.112;2022-10-16T11:27:26;11.18;;;4.75;;
64649;SDS011;51061;45.258;38.112;2022-10-16T11:30:02;14.63;;;4.80;;
64649;SDS011;51061;45.258;38.112;2022-10-16T11:32:36;12.75;;;4.80;;
64649;SDS011;51061;45.258;38.112;2022-10-16T11:35:27;15.10;;;5.13;;
64649;SDS011;51061;45.258;38.112;2022-10-16T11:37:56;11.27;;;4.75;;
64649;SDS011;51061;45.258;38.112;2022-10-16T11:40:32;20.33;;;6.82;;
64649;SDS011;51061;45.258;38.112;2022-10-16T11:46:07;17.50;;;6.20;;
64649;SDS011;51061;45.258;38.112;2022-10-16T11:48:43;16.20;;;6.47;;
64649;SDS011;51061;45.258;38.112;2022-10-16T11:56:43;18.58;;;6.88;;
64649;SDS011;51061;45.258;38.112;2022-10-16T11:59:36;18.88;;;7.32;;
64649;SDS011;51061;45.258;38.112;2022-10-16T12:02:35;16.00;;;6.00;;
64649;SDS011;51061;45.258;38.112;2022-10-16T12:05:27;13.43;;;5.32;;
64649;SDS011;51061;45.258;38.112;2022-10-16T12:08:14;19.33;;;6.43;;
64649;SDS011;51061;45.258;38.112;2022-10-16T12:10:42;20.15;;;6.55;;
64649;SDS011;51061;45.258;38.112;2022-10-16T12:13:32;18.25;;;5.40;;
64649;SDS011;51061;45.258;38.112;2022-10-16T12:18:37;17.83;;;7.82;;
64649;SDS011;51061;45.258;38.112;2022-10-16T12:21:04;14.95;;;5.68;;
64649;SDS011;51061;45.258;38.112;2022-10-16T12:23:32;22.45;;;6.78;;
64649;SDS011;51061;45.258;38.112;2022-10-16T12:26:02;21.60;;;7.45;;
64649;SDS011;51061;45.258;38.112;2022-10-16T12:28:30;25.33;;;7.40;;
64649;SDS011;51061;45.258;38.112;2022-10-16T12:31:02;18.58;;;6.78;;
64649;SDS011;51061;45.258;38.112;2022-10-16T12:33:34;23.27;;;8.10;;
64649;SDS011;51061;45.258;38.112;2022-10-16T12:36:16;20.77;;;7.47;;
64649;SDS011;51061;45.258;38.112;2022-10-16T12:38:54;19.60;;;6.57;;
64649;SDS011;51061;45.258;38.112;2022-10-16T12:41:28;23.25;;;8.30;;
64649;SDS011;51061;45.258;38.112;2022-10-16T12:43:56;18.77;;;6.72;;
64649;SDS011;51061;45.258;38.112;2022-10-16T12:46:44;16.00;;;6.43;;
64649;SDS011;51061;45.258;38.112;2022-10-16T12:51:38;8.18;;;4.18;;
64649;SDS011;51061;45.258;38.112;2022-10-16T12:56:56;20.27;;;5.47;;
64649;SDS011;51061;45.258;38.112;2022-10-16T13:07:53;24.85;;;6.53;;
64649;SDS011;51061;45.258;38.112;2022-10-16T13:10:32;18.57;;;6.07;;
64649;SDS011;51061;45.258;38.112;2022-10-16T13:21:50;28.05;;;8.75;;
64649;SDS011;51061;45.258;38.112;2022-10-16T13:30:19;23.27;;;7.25;;
64649;SDS011;51061;45.258;38.112;2022-10-16T13:35:46;27.75;;;8.85;;
64649;SDS011;51061;45.258;38.112;2022-10-16T13:38:20;27.58;;;10.10;;
64649;SDS011;51061;45.258;38.112;2022-10-16T13:41:33;31.23;;;9.68;;
64649;SDS011;51061;45.258;38.112;2022-10-16T13:43:49;20.75;;;7.18;;
64649;SDS011;51061;45.258;38.112;2022-10-16T13:46:20;21.15;;;7.28;;
64649;SDS011;51061;45.258;38.112;2022-10-16T13:49:04;20.27;;;6.68;;
64649;SDS011;51061;45.258;38.112;2022-10-16T13:51:37;30.58;;;8.95;;
64649;SDS011;51061;45.258;38.112;2022-10-16T13:54:03;23.73;;;7.20;;
64649;SDS011;51061;45.258;38.112;2022-10-16T13:56:30;28.13;;;7.75;;
64649;SDS011;51061;45.258;38.112;2022-10-16T13:58:58;22.75;;;6.53;;
64649;SDS011;51061;45.258;38.112;2022-10-16T14:01:32;33.40;;;8.85;;
64649;SDS011;51061;45.258;38.112;2022-10-16T14:04:05;34.70;;;9.57;;
64649;SDS011;51061;45.258;38.112;2022-10-16T14:06:35;20.92;;;7.18;;
64649;SDS011;51061;45.258;38.112;2022-10-16T14:11:33;16.35;;;6.03;;
64649;SDS011;51061;45.258;38.112;2022-10-16T14:14:02;21.58;;;6.57;;
64649;SDS011;51061;45.258;38.112;2022-10-16T14:16:29;22.70;;;5.20;;
64649;SDS011;51061;45.258;38.112;2022-10-16T14:19:01;12.40;;;3.92;;
64649;SDS011;51061;45.258;38.112;2022-10-16T14:21:32;20.17;;;5.07;;
64649;SDS011;51061;45.258;38.112;2022-10-16T14:23:59;24.50;;;6.47;;
64649;SDS011;51061;45.258;38.112;2022-10-16T14:26:40;25.60;;;6.28;;
64649;SDS011;51061;45.258;38.112;2022-10-16T14:29:15;19.10;;;5.63;;
64649;SDS011;51061;45.258;38.112;2022-10-16T14:34:52;17.42;;;5.45;;
64649;SDS011;51061;45.258;38.112;2022-10-16T14:37:23;14.00;;;4.80;;
64649;SDS011;51061;45.258;38.112;2022-10-16T14:39:52;20.95;;;5.32;;
64649;SDS011;51061;45.258;38.112;2022-10-16T14:42:19;15.23;;;4.90;;
64649;SDS011;51061;45.258;38.112;2022-10-16T14:44:50;15.15;;;5.10;;
64649;SDS011;51061;45.258;38.112;2022-10-16T14:47:19;23.25;;;5.90;;
64649;SDS011;51061;45.258;38.112;2022-10-16T14:49:50;17.55;;;5.40;;
64649;SDS011;51061;45.258;38.112;2022-10-16T14:52:17;16.40;;;4.82;;
64649;SDS011;51061;45.258;38.112;2022-10-16T14:54:43;16.63;;;5.07;;
64649;SDS011;51061;45.258;38.112;2022-10-16T14:57:20;19.50;;;4.40;;
64649;SDS011;51061;45.258;38.112;2022-10-16T14:59:49;16.02;;;5.07;;
64649;SDS011;51061;45.258;38.112;2022-10-16T15:07:21;18.65;;;4.95;;
64649;SDS011;51061;45.258;38.112;2022-10-16T15:09:47;14.73;;;4.88;;
64649;SDS011;51061;45.258;38.112;2022-10-16T15:12:14;19.35;;;5.00;;
64649;SDS011;51061;45.258;38.112;2022-10-16T15:14:40;51.47;;;15.57;;
64649;SDS011;51061;45.258;38.112;2022-10-16T15:19:34;187.68;;;61.33;;
64649;SDS011;51061;45.258;38.112;2022-10-16T15:22:00;152.20;;;43.58;;
64649;SDS011;51061;45.258;38.112;2022-10-16T15:24:26;89.18;;;24.88;;
64649;SDS011;51061;45.258;38.112;2022-10-16T15:26:52;115.07;;;32.13;;
64649;SDS011;51061;45.258;38.112;2022-10-16T15:29:19;114.75;;;31.27;;
64649;SDS011;51061;45.258;38.112;2022-10-16T15:31:45;72.60;;;20.75;;
64649;SDS011;51061;45.258;38.112;2022-10-16T15:34:12;59.20;;;16.80;;
64649;SDS011;51061;45.258;38.112;2022-10-16T15:36:42;56.42;;;17.00;;
64649;SDS011;51061;45.258;38.112;2022-10-16T15:41:44;56.13;;;15.43;;
64649;SDS011;51061;45.258;38.112;2022-10-16T15:44:19;47.92;;;13.43;;
64649;SDS011;51061;45.258;38.112;2022-10-16T15:46:48;48.33;;;12.13;;
64649;SDS011;51061;45.258;38.112;2022-10-16T15:49:14;61.03;;;18.17;;
64649;SDS011;51061;45.258;38.112;2022-10-16T15:51:40;54.47;;;15.05;;
64649;SDS011;51061;45.258;38.112;2022-10-16T15:54:07;48.53;;;14.77;;
64649;SDS011;51061;45.258;38.112;2022-10-16T15:56:37;56.88;;;16.27;;
64649;SDS011;51061;45.258;38.112;2022-10-16T15:59:03;37.05;;;10.05;;
64649;SDS011;51061;45.258;38.112;2022-10-16T16:01:33;49.13;;;13.63;;
64649;SDS011;51061;45.258;38.112;2022-10-16T16:04:00;51.03;;;14.95;;
64649;SDS011;51061;45.258;38.112;2022-10-16T16:06:26;56.05;;;15.57;;
64649;SDS011;51061;45.258;38.112;2022-10-16T16:11:19;52.63;;;14.00;;
64649;SDS011;51061;45.258;38.112;2022-10-16T16:13:45;45.17;;;11.70;;
64649;SDS011;51061;45.258;38.112;2022-10-16T16:21:05;39.50;;;9.63;;
64649;SDS011;51061;45.258;38.112;2022-10-16T16:23:32;23.13;;;6.55;;
64649;SDS011;51061;45.258;38.112;2022-10-16T16:28:31;27.35;;;8.32;;
64649;SDS011;51061;45.258;38.112;2022-10-16T16:33:23;35.28;;;9.10;;
64649;SDS011;51061;45.258;38.112;2022-10-16T16:35:49;26.67;;;7.63;;
64649;SDS011;51061;45.258;38.112;2022-10-16T16:40:41;20.83;;;5.22;;
64649;SDS011;51061;45.258;38.112;2022-10-16T16:43:07;18.17;;;5.68;;
64649;SDS011;51061;45.258;38.112;2022-10-16T16:45:35;25.02;;;5.38;;
64649;SDS011;51061;45.258;38.112;2022-10-16T16:48:03;16.70;;;5.18;;
64649;SDS011;51061;45.258;38.112;2022-10-16T16:50:34;16.58;;;5.35;;
64649;SDS011;51061;45.258;38.112;2022-10-16T16:53:01;16.98;;;4.53;;
64649;SDS011;51061;45.258;38.112;2022-10-16T16:55:27;18.67;;;4.60;;
64649;SDS011;51061;45.258;38.112;2022-10-16T17:00:19;22.40;;;4.28;;
64649;SDS011;51061;45.258;38.112;2022-10-16T17:02:48;16.85;;;4.45;;
64649;SDS011;51061;45.258;38.112;2022-10-16T17:05:17;12.32;;;3.42;;
64649;SDS011;51061;45.258;38.112;2022-10-16T17:07:43;11.15;;;3.40;;
64649;SDS011;51061;45.258;38.112;2022-10-16T17:10:10;11.48;;;3.00;;
64649;SDS011;51061;45.258;38.112;2022-10-16T17:12:36;11.77;;;3.13;;
64649;SDS011;51061;45.258;38.112;2022-10-16T17:15:02;18.63;;;4.32;;
64649;SDS011;51061;45.258;38.112;2022-10-16T17:17:29;10.98;;;2.80;;
64649;SDS011;51061;45.258;38.112;2022-10-16T17:22:22;9.27;;;2.72;;
64649;SDS011;51061;45.258;38.112;2022-10-16T17:24:49;7.40;;;2.95;;
64649;SDS011;51061;45.258;38.112;2022-10-16T17:27:17;10.38;;;2.50;;
64649;SDS011;51061;45.258;38.112;2022-10-16T17:29:43;5.75;;;2.63;;
64649;SDS011;51061;45.258;38.112;2022-10-16T17:32:11;10.30;;;3.10;;
64649;SDS011;51061;45.258;38.112;2022-10-16T17:34:38;9.18;;;3.13;;
64649;SDS011;51061;45.258;38.112;2022-10-16T17:37:04;7.07;;;3.08;;
64649;SDS011;51061;45.258;38.112;2022-10-16T17:39:32;12.32;;;3.20;;